Strona główna
METAR-TAF:

METAR-TAF

Lotnisko :

Port lotniczy Lappeenranta

Lappeenranta, Finlandia

Szerokość geograficzna: 61-02-45N, Długość geograficzna: 028-08-55E, wysokość: 106 m

Aktualna obserwacja pogody

Raport powstał 21 minut temu, godzina 10:50 UTC
Wiatr 5 kt z kierunków zmiennych
Temperatura 0°C
Wilgotność 93%
Ciśnienie 978 hPa
Widzialność: 2900 m
Mało chmury na wysokości 200 ft
Rozproszone chmury na wysokości 1100 ft
Przerywane chmury na wysokości 1300 ft
słaby przelotny opad śniegu

METAR: EFLP 031050Z AUTO VRB05KT 2900 -SHSN FEW002 SCT011 BKN013 //////CB M00/M01 Q0978 REFZDZ RESHSN

czas: 14:11 (11:11 UTC)


TAF: brakujący

Obserwacja i prognoza pogody dla ponad 4000 lotnisk (raport METAR i TAF).

Dostępne stacje oznaczono żółtymi i czerwonymi punktami na mapie.

Najedź kursorem aby zobaczyć nazwę stacji.

Kliknij aby zobaczyć obserwacje i prognozy pogody.

Aby zmienić mapę: kliknij na zielony przycisk z czarnym krzyżykiem, aby powiększyć; na zielony przycisk z myślnikiem, aby pomniejszyć; na zielone strzałki, aby przejść do map sąsiednich.


METAR-TAF: